sensor_id;sensor_type;location;lat;lon;timestamp;temperature;humidity
19732;DHT22;10017;54.350;18.532;2023-03-13T00:01:36;-1.50;99.90
19732;DHT22;10017;54.350;18.532;2023-03-13T00:04:10;-1.50;99.90
19732;DHT22;10017;54.350;18.532;2023-03-13T00:06:42;-1.50;99.90
19732;DHT22;10017;54.350;18.532;2023-03-13T00:09:14;-1.50;99.90
19732;DHT22;10017;54.350;18.532;2023-03-13T00:11:47;-1.50;99.90
19732;DHT22;10017;54.350;18.532;2023-03-13T00:14:18;-1.50;99.90
19732;DHT22;10017;54.350;18.532;2023-03-13T00:16:50;-1.60;99.90
19732;DHT22;10017;54.350;18.532;2023-03-13T00:19:22;-1.60;99.90
19732;DHT22;10017;54.350;18.532;2023-03-13T00:21:56;-1.60;99.90
19732;DHT22;10017;54.350;18.532;2023-03-13T00:24:31;-1.60;99.90
19732;DHT22;10017;54.350;18.532;2023-03-13T00:27:05;-1.60;99.90
19732;DHT22;10017;54.350;18.532;2023-03-13T00:29:37;-1.60;99.90
19732;DHT22;10017;54.350;18.532;2023-03-13T00:32:16;-1.60;99.90
19732;DHT22;10017;54.350;18.532;2023-03-13T00:34:48;-1.60;99.90
19732;DHT22;10017;54.350;18.532;2023-03-13T00:37:22;-1.60;99.90
19732;DHT22;10017;54.350;18.532;2023-03-13T00:39:54;-1.60;99.90
19732;DHT22;10017;54.350;18.532;2023-03-13T00:42:26;-1.60;99.90
19732;DHT22;10017;54.350;18.532;2023-03-13T00:44:58;-1.60;99.90
19732;DHT22;10017;54.350;18.532;2023-03-13T00:47:30;-1.50;99.90
19732;DHT22;10017;54.350;18.532;2023-03-13T00:50:02;-1.50;99.90
19732;DHT22;10017;54.350;18.532;2023-03-13T00:52:33;-1.50;99.90
19732;DHT22;10017;54.350;18.532;2023-03-13T00:55:05;-1.40;99.90
19732;DHT22;10017;54.350;18.532;2023-03-13T00:57:37;-1.40;99.90
19732;DHT22;10017;54.350;18.532;2023-03-13T01:00:09;-1.30;99.90
19732;DHT22;10017;54.350;18.532;2023-03-13T01:02:42;-1.30;99.90
19732;DHT22;10017;54.350;18.532;2023-03-13T01:05:15;-1.20;99.90
19732;DHT22;10017;54.350;18.532;2023-03-13T01:07:47;-1.10;99.90
19732;DHT22;10017;54.350;18.532;2023-03-13T01:10:18;-1.10;99.90
19732;DHT22;10017;54.350;18.532;2023-03-13T01:12:50;-1.10;99.90
19732;DHT22;10017;54.350;18.532;2023-03-13T01:15:22;-1.10;99.90
19732;DHT22;10017;54.350;18.532;2023-03-13T01:17:54;-1.00;99.90
19732;DHT22;10017;54.350;18.532;2023-03-13T01:20:28;-1.00;99.90
19732;DHT22;10017;54.350;18.532;2023-03-13T01:22:59;-1.10;99.90
19732;DHT22;10017;54.350;18.532;2023-03-13T01:25:34;-1.00;99.90
19732;DHT22;10017;54.350;18.532;2023-03-13T01:28:06;-1.00;99.90
19732;DHT22;10017;54.350;18.532;2023-03-13T01:30:39;-1.00;99.90
19732;DHT22;10017;54.350;18.532;2023-03-13T01:33:11;-1.00;99.90
19732;DHT22;10017;54.350;18.532;2023-03-13T01:35:46;-1.00;99.90
19732;DHT22;10017;54.350;18.532;2023-03-13T01:38:18;-1.00;99.90
19732;DHT22;10017;54.350;18.532;2023-03-13T01:40:50;-0.90;99.90
19732;DHT22;10017;54.350;18.532;2023-03-13T01:43:23;-0.90;99.90
19732;DHT22;10017;54.350;18.532;2023-03-13T01:45:59;-1.00;99.90
19732;DHT22;10017;54.350;18.532;2023-03-13T01:51:04;-1.00;99.90
19732;DHT22;10017;54.350;18.532;2023-03-13T01:53:40;-1.00;99.90
19732;DHT22;10017;54.350;18.532;2023-03-13T01:56:16;-1.00;99.90
19732;DHT22;10017;54.350;18.532;2023-03-13T01:58:49;-1.10;99.90
19732;DHT22;10017;54.350;18.532;2023-03-13T02:01:22;-1.00;99.90
19732;DHT22;10017;54.350;18.532;2023-03-13T02:03:55;-1.00;99.90
19732;DHT22;10017;54.350;18.532;2023-03-13T02:06:28;-1.10;99.90
19732;DHT22;10017;54.350;18.532;2023-03-13T02:09:02;-1.10;99.90
19732;DHT22;10017;54.350;18.532;2023-03-13T02:14:11;-1.10;99.90
19732;DHT22;10017;54.350;18.532;2023-03-13T02:16:43;-1.10;99.90
19732;DHT22;10017;54.350;18.532;2023-03-13T02:19:26;-1.10;99.90
19732;DHT22;10017;54.350;18.532;2023-03-13T02:27:23;-1.00;99.90
19732;DHT22;10017;54.350;18.532;2023-03-13T02:29:58;-0.90;99.90
19732;DHT22;10017;54.350;18.532;2023-03-13T02:32:30;-0.90;99.90
19732;DHT22;10017;54.350;18.532;2023-03-13T02:35:07;-0.90;99.90
19732;DHT22;10017;54.350;18.532;2023-03-13T02:37:43;-0.80;99.90
19732;DHT22;10017;54.350;18.532;2023-03-13T02:40:17;-0.80;99.90
19732;DHT22;10017;54.350;18.532;2023-03-13T02:42:52;-0.70;99.90
19732;DHT22;10017;54.350;18.532;2023-03-13T02:45:25;-0.70;99.90
19732;DHT22;10017;54.350;18.532;2023-03-13T02:47:59;-0.60;99.90
19732;DHT22;10017;54.350;18.532;2023-03-13T02:50:32;-0.60;99.90
19732;DHT22;10017;54.350;18.532;2023-03-13T02:53:05;-0.50;99.90
19732;DHT22;10017;54.350;18.532;2023-03-13T02:55:38;-0.50;99.90
19732;DHT22;10017;54.350;18.532;2023-03-13T02:58:11;-0.40;99.90
19732;DHT22;10017;54.350;18.532;2023-03-13T03:00:43;-0.40;99.90
19732;DHT22;10017;54.350;18.532;2023-03-13T03:03:16;-0.40;99.90
19732;DHT22;10017;54.350;18.532;2023-03-13T03:05:47;-0.30;99.90
19732;DHT22;10017;54.350;18.532;2023-03-13T03:08:19;-0.30;99.90
19732;DHT22;10017;54.350;18.532;2023-03-13T03:10:53;-0.30;99.90
19732;DHT22;10017;54.350;18.532;2023-03-13T03:13:26;-0.30;99.90
19732;DHT22;10017;54.350;18.532;2023-03-13T03:15:58;-0.20;99.90
19732;DHT22;10017;54.350;18.532;2023-03-13T03:18:30;-0.20;99.90
19732;DHT22;10017;54.350;18.532;2023-03-13T03:21:05;-0.20;99.90
19732;DHT22;10017;54.350;18.532;2023-03-13T03:23:37;-0.30;99.90
19732;DHT22;10017;54.350;18.532;2023-03-13T03:26:09;-0.20;99.90
19732;DHT22;10017;54.350;18.532;2023-03-13T03:28:41;-0.20;99.90
19732;DHT22;10017;54.350;18.532;2023-03-13T03:31:13;-0.20;99.90
19732;DHT22;10017;54.350;18.532;2023-03-13T03:33:46;-0.20;99.90
19732;DHT22;10017;54.350;18.532;2023-03-13T03:36:19;-0.20;99.90
19732;DHT22;10017;54.350;18.532;2023-03-13T03:38:52;-0.20;99.90
19732;DHT22;10017;54.350;18.532;2023-03-13T03:41:24;-0.20;99.90
19732;DHT22;10017;54.350;18.532;2023-03-13T03:43:55;-0.20;99.90
19732;DHT22;10017;54.350;18.532;2023-03-13T03:46:30;-0.10;99.90
19732;DHT22;10017;54.350;18.532;2023-03-13T03:49:01;-0.10;99.90
19732;DHT22;10017;54.350;18.532;2023-03-13T03:51:33;-0.10;99.90
19732;DHT22;10017;54.350;18.532;2023-03-13T03:54:05;-0.10;99.90
19732;DHT22;10017;54.350;18.532;2023-03-13T03:56:37;-0.10;99.90
19732;DHT22;10017;54.350;18.532;2023-03-13T03:59:09;-0.10;99.90
19732;DHT22;10017;54.350;18.532;2023-03-13T04:01:41;-0.10;99.90
19732;DHT22;10017;54.350;18.532;2023-03-13T04:04:13;-0.10;99.90
19732;DHT22;10017;54.350;18.532;2023-03-13T04:06:45;-0.10;99.90
19732;DHT22;10017;54.350;18.532;2023-03-13T04:09:17;-0.10;99.90
19732;DHT22;10017;54.350;18.532;2023-03-13T04:11:49;-0.10;99.90
19732;DHT22;10017;54.350;18.532;2023-03-13T04:14:21;-0.10;99.90
19732;DHT22;10017;54.350;18.532;2023-03-13T04:16:52;-0.10;99.90
19732;DHT22;10017;54.350;18.532;2023-03-13T04:19:24;-0.10;99.90
19732;DHT22;10017;54.350;18.532;2023-03-13T04:21:56;0.00;99.90
19732;DHT22;10017;54.350;18.532;2023-03-13T04:24:28;-0.10;99.90
19732;DHT22;10017;54.350;18.532;2023-03-13T04:27:03;0.00;99.90
19732;DHT22;10017;54.350;18.532;2023-03-13T04:29:37;0.00;99.90
19732;DHT22;10017;54.350;18.532;2023-03-13T04:32:09;0.00;99.90
19732;DHT22;10017;54.350;18.532;2023-03-13T04:34:41;0.00;99.90
19732;DHT22;10017;54.350;18.532;2023-03-13T04:37:13;0.00;99.90
19732;DHT22;10017;54.350;18.532;2023-03-13T04:39:45;0.00;99.90
19732;DHT22;10017;54.350;18.532;2023-03-13T04:42:17;0.10;99.90
19732;DHT22;10017;54.350;18.532;2023-03-13T04:44:49;0.10;99.90
19732;DHT22;10017;54.350;18.532;2023-03-13T04:47:21;0.10;99.90
19732;DHT22;10017;54.350;18.532;2023-03-13T04:49:53;0.10;99.90
19732;DHT22;10017;54.350;18.532;2023-03-13T04:52:25;0.20;99.90
19732;DHT22;10017;54.350;18.532;2023-03-13T04:54:57;0.20;99.90
19732;DHT22;10017;54.350;18.532;2023-03-13T04:57:28;0.20;99.90
19732;DHT22;10017;54.350;18.532;2023-03-13T05:00:00;0.20;99.90
19732;DHT22;10017;54.350;18.532;2023-03-13T05:02:32;0.30;99.90
19732;DHT22;10017;54.350;18.532;2023-03-13T05:05:04;0.30;99.90
19732;DHT22;10017;54.350;18.532;2023-03-13T05:07:36;0.40;99.90
19732;DHT22;10017;54.350;18.532;2023-03-13T05:10:08;0.40;99.90
19732;DHT22;10017;54.350;18.532;2023-03-13T05:12:40;0.40;99.90
19732;DHT22;10017;54.350;18.532;2023-03-13T05:15:12;0.50;99.90
19732;DHT22;10017;54.350;18.532;2023-03-13T05:17:43;0.50;99.90
19732;DHT22;10017;54.350;18.532;2023-03-13T05:20:15;0.50;99.90
19732;DHT22;10017;54.350;18.532;2023-03-13T05:22:47;0.50;99.90
19732;DHT22;10017;54.350;18.532;2023-03-13T05:25:20;0.60;99.90
19732;DHT22;10017;54.350;18.532;2023-03-13T05:27:52;0.70;99.90
19732;DHT22;10017;54.350;18.532;2023-03-13T05:30:24;0.70;99.90
19732;DHT22;10017;54.350;18.532;2023-03-13T05:32:58;0.80;99.90
19732;DHT22;10017;54.350;18.532;2023-03-13T05:35:30;0.80;99.90
19732;DHT22;10017;54.350;18.532;2023-03-13T05:38:02;0.80;99.90
19732;DHT22;10017;54.350;18.532;2023-03-13T05:40:34;0.80;99.90
19732;DHT22;10017;54.350;18.532;2023-03-13T05:43:06;0.90;99.90
19732;DHT22;10017;54.350;18.532;2023-03-13T05:45:38;1.00;99.90
19732;DHT22;10017;54.350;18.532;2023-03-13T05:48:10;1.00;99.90
19732;DHT22;10017;54.350;18.532;2023-03-13T05:50:42;1.10;99.90
19732;DHT22;10017;54.350;18.532;2023-03-13T05:53:16;1.10;99.90
19732;DHT22;10017;54.350;18.532;2023-03-13T05:55:48;1.10;99.90
19732;DHT22;10017;54.350;18.532;2023-03-13T05:58:20;1.10;99.90
19732;DHT22;10017;54.350;18.532;2023-03-13T06:00:52;1.20;99.90
19732;DHT22;10017;54.350;18.532;2023-03-13T06:03:24;1.20;99.90
19732;DHT22;10017;54.350;18.532;2023-03-13T06:05:56;1.20;99.90
19732;DHT22;10017;54.350;18.532;2023-03-13T06:08:28;1.20;99.90
19732;DHT22;10017;54.350;18.532;2023-03-13T06:11:01;1.30;99.90
19732;DHT22;10017;54.350;18.532;2023-03-13T06:13:35;1.30;99.90
19732;DHT22;10017;54.350;18.532;2023-03-13T06:16:07;1.40;99.90
19732;DHT22;10017;54.350;18.532;2023-03-13T06:18:39;1.40;99.90
19732;DHT22;10017;54.350;18.532;2023-03-13T06:21:13;1.50;99.90
19732;DHT22;10017;54.350;18.532;2023-03-13T06:23:45;1.60;99.90
19732;DHT22;10017;54.350;18.532;2023-03-13T06:26:19;1.60;99.90
19732;DHT22;10017;54.350;18.532;2023-03-13T06:28:51;1.60;99.90
19732;DHT22;10017;54.350;18.532;2023-03-13T06:31:23;1.70;99.90
19732;DHT22;10017;54.350;18.532;2023-03-13T06:33:55;1.70;99.90
19732;DHT22;10017;54.350;18.532;2023-03-13T06:36:27;1.70;99.90
19732;DHT22;10017;54.350;18.532;2023-03-13T06:38:59;1.80;99.90
19732;DHT22;10017;54.350;18.532;2023-03-13T06:41:31;1.80;99.90
19732;DHT22;10017;54.350;18.532;2023-03-13T06:44:04;1.80;99.90
19732;DHT22;10017;54.350;18.532;2023-03-13T06:46:36;1.80;99.90
19732;DHT22;10017;54.350;18.532;2023-03-13T06:49:07;1.90;99.90
19732;DHT22;10017;54.350;18.532;2023-03-13T06:51:39;1.90;99.90
19732;DHT22;10017;54.350;18.532;2023-03-13T06:54:11;2.00;99.90
19732;DHT22;10017;54.350;18.532;2023-03-13T06:56:45;2.10;99.90
19732;DHT22;10017;54.350;18.532;2023-03-13T06:59:17;2.10;99.90
19732;DHT22;10017;54.350;18.532;2023-03-13T07:01:51;2.20;99.90
19732;DHT22;10017;54.350;18.532;2023-03-13T07:04:23;2.20;99.90
19732;DHT22;10017;54.350;18.532;2023-03-13T07:06:57;2.30;99.90
19732;DHT22;10017;54.350;18.532;2023-03-13T07:09:29;2.40;99.90
19732;DHT22;10017;54.350;18.532;2023-03-13T07:12:01;2.50;99.90
19732;DHT22;10017;54.350;18.532;2023-03-13T07:14:33;2.50;99.90
19732;DHT22;10017;54.350;18.532;2023-03-13T07:17:05;2.60;99.90
19732;DHT22;10017;54.350;18.532;2023-03-13T07:19:37;2.60;99.90
19732;DHT22;10017;54.350;18.532;2023-03-13T07:22:09;2.80;99.90
19732;DHT22;10017;54.350;18.532;2023-03-13T07:24:41;2.80;99.90
19732;DHT22;10017;54.350;18.532;2023-03-13T07:27:13;2.90;99.90
19732;DHT22;10017;54.350;18.532;2023-03-13T07:29:48;3.00;99.90
19732;DHT22;10017;54.350;18.532;2023-03-13T07:32:20;3.10;99.90
19732;DHT22;10017;54.350;18.532;2023-03-13T07:34:55;3.20;99.90
19732;DHT22;10017;54.350;18.532;2023-03-13T07:37:27;3.30;99.90
19732;DHT22;10017;54.350;18.532;2023-03-13T07:39:59;3.40;99.90
19732;DHT22;10017;54.350;18.532;2023-03-13T07:42:31;3.50;99.90
19732;DHT22;10017;54.350;18.532;2023-03-13T07:45:03;3.60;99.90
19732;DHT22;10017;54.350;18.532;2023-03-13T07:47:37;3.70;99.90
19732;DHT22;10017;54.350;18.532;2023-03-13T07:50:09;3.80;99.90
19732;DHT22;10017;54.350;18.532;2023-03-13T07:52:43;3.90;99.90
19732;DHT22;10017;54.350;18.532;2023-03-13T07:55:15;3.90;99.90
19732;DHT22;10017;54.350;18.532;2023-03-13T07:57:47;4.10;99.90
19732;DHT22;10017;54.350;18.532;2023-03-13T08:00:19;4.20;99.90
19732;DHT22;10017;54.350;18.532;2023-03-13T08:02:51;4.30;99.90
19732;DHT22;10017;54.350;18.532;2023-03-13T08:05:23;4.50;99.90
19732;DHT22;10017;54.350;18.532;2023-03-13T08:07:55;4.60;99.90
19732;DHT22;10017;54.350;18.532;2023-03-13T08:10:30;4.70;99.90
19732;DHT22;10017;54.350;18.532;2023-03-13T08:13:02;4.70;99.90
19732;DHT22;10017;54.350;18.532;2023-03-13T08:15:33;4.80;99.90
19732;DHT22;10017;54.350;18.532;2023-03-13T08:18:05;4.80;99.90
19732;DHT22;10017;54.350;18.532;2023-03-13T08:20:37;4.90;99.90
19732;DHT22;10017;54.350;18.532;2023-03-13T08:23:09;4.80;99.90
19732;DHT22;10017;54.350;18.532;2023-03-13T08:25:41;4.90;99.90
19732;DHT22;10017;54.350;18.532;2023-03-13T08:28:12;4.80;99.90
19732;DHT22;10017;54.350;18.532;2023-03-13T08:30:44;4.80;99.90
19732;DHT22;10017;54.350;18.532;2023-03-13T08:33:16;4.80;99.90
19732;DHT22;10017;54.350;18.532;2023-03-13T08:35:48;4.80;99.90
19732;DHT22;10017;54.350;18.532;2023-03-13T08:38:20;4.80;99.90
19732;DHT22;10017;54.350;18.532;2023-03-13T08:40:55;4.80;99.90
19732;DHT22;10017;54.350;18.532;2023-03-13T08:43:27;4.80;99.90
19732;DHT22;10017;54.350;18.532;2023-03-13T08:45:59;4.80;99.90
19732;DHT22;10017;54.350;18.532;2023-03-13T08:48:31;4.80;99.90
19732;DHT22;10017;54.350;18.532;2023-03-13T08:51:04;4.90;99.90
19732;DHT22;10017;54.350;18.532;2023-03-13T08:53:36;4.80;99.90
19732;DHT22;10017;54.350;18.532;2023-03-13T08:56:09;4.80;99.90
19732;DHT22;10017;54.350;18.532;2023-03-13T08:58:41;4.80;99.90
19732;DHT22;10017;54.350;18.532;2023-03-13T09:01:13;4.70;99.90
19732;DHT22;10017;54.350;18.532;2023-03-13T09:03:45;4.60;99.90
19732;DHT22;10017;54.350;18.532;2023-03-13T09:06:18;4.70;99.90
19732;DHT22;10017;54.350;18.532;2023-03-13T09:08:50;4.70;99.90
19732;DHT22;10017;54.350;18.532;2023-03-13T09:11:22;4.70;99.90
19732;DHT22;10017;54.350;18.532;2023-03-13T09:13:54;4.80;99.90
19732;DHT22;10017;54.350;18.532;2023-03-13T09:16:27;4.80;99.90
19732;DHT22;10017;54.350;18.532;2023-03-13T09:19:00;4.80;99.90
19732;DHT22;10017;54.350;18.532;2023-03-13T09:21:32;4.90;99.90
19732;DHT22;10017;54.350;18.532;2023-03-13T09:24:05;5.00;99.90
19732;DHT22;10017;54.350;18.532;2023-03-13T09:26:37;5.00;99.90
19732;DHT22;10017;54.350;18.532;2023-03-13T09:29:12;5.00;99.90
19732;DHT22;10017;54.350;18.532;2023-03-13T09:31:44;5.00;99.90
19732;DHT22;10017;54.350;18.532;2023-03-13T09:34:16;5.00;99.90
19732;DHT22;10017;54.350;18.532;2023-03-13T09:36:48;5.00;99.90
19732;DHT22;10017;54.350;18.532;2023-03-13T09:39:20;5.00;99.90
19732;DHT22;10017;54.350;18.532;2023-03-13T09:44:45;5.20;99.90
19732;DHT22;10017;54.350;18.532;2023-03-13T09:52:27;5.60;99.90
19732;DHT22;10017;54.350;18.532;2023-03-13T09:55:12;5.70;99.90
19732;DHT22;10017;54.350;18.532;2023-03-13T09:57:57;5.80;99.90
19732;DHT22;10017;54.350;18.532;2023-03-13T10:00:35;5.90;99.90
19732;DHT22;10017;54.350;18.532;2023-03-13T10:05:42;6.00;99.90
19732;DHT22;10017;54.350;18.532;2023-03-13T10:08:18;5.90;99.90
19732;DHT22;10017;54.350;18.532;2023-03-13T10:16:00;6.00;99.90
19732;DHT22;10017;54.350;18.532;2023-03-13T10:18:34;6.00;99.90
19732;DHT22;10017;54.350;18.532;2023-03-13T10:21:11;6.00;99.90
19732;DHT22;10017;54.350;18.532;2023-03-13T10:26:26;6.10;99.90
19732;DHT22;10017;54.350;18.532;2023-03-13T10:29:00;6.10;99.90
19732;DHT22;10017;54.350;18.532;2023-03-13T10:31:33;6.10;99.90
19732;DHT22;10017;54.350;18.532;2023-03-13T10:34:12;6.10;99.90
19732;DHT22;10017;54.350;18.532;2023-03-13T10:36:45;6.10;99.90
19732;DHT22;10017;54.350;18.532;2023-03-13T10:39:22;6.00;99.90
19732;DHT22;10017;54.350;18.532;2023-03-13T10:41:59;6.00;99.90
19732;DHT22;10017;54.350;18.532;2023-03-13T10:44:40;6.00;99.90
19732;DHT22;10017;54.350;18.532;2023-03-13T10:47:14;6.00;99.90
19732;DHT22;10017;54.350;18.532;2023-03-13T10:49:47;6.00;99.90
19732;DHT22;10017;54.350;18.532;2023-03-13T10:53:18;6.00;99.90
19732;DHT22;10017;54.350;18.532;2023-03-13T10:55:20;6.00;99.90
19732;DHT22;10017;54.350;18.532;2023-03-13T10:57:59;5.90;99.90
19732;DHT22;10017;54.350;18.532;2023-03-13T11:00:35;5.90;99.90
19732;DHT22;10017;54.350;18.532;2023-03-13T11:03:17;5.90;99.90
19732;DHT22;10017;54.350;18.532;2023-03-13T11:05:57;5.90;99.90
19732;DHT22;10017;54.350;18.532;2023-03-13T11:08:33;5.90;99.90
19732;DHT22;10017;54.350;18.532;2023-03-13T11:11:16;5.80;99.90
19732;DHT22;10017;54.350;18.532;2023-03-13T11:13:48;5.80;99.90
19732;DHT22;10017;54.350;18.532;2023-03-13T11:16:25;5.80;99.90
19732;DHT22;10017;54.350;18.532;2023-03-13T11:27:47;5.90;99.90
19732;DHT22;10017;54.350;18.532;2023-03-13T11:32:54;5.90;99.90
19732;DHT22;10017;54.350;18.532;2023-03-13T11:35:32;5.90;99.90
19732;DHT22;10017;54.350;18.532;2023-03-13T11:38:12;5.90;99.90
19732;DHT22;10017;54.350;18.532;2023-03-13T11:43:34;5.80;99.90
19732;DHT22;10017;54.350;18.532;2023-03-13T11:51:19;5.80;99.90
19732;DHT22;10017;54.350;18.532;2023-03-13T12:02:09;5.80;99.90
19732;DHT22;10017;54.350;18.532;2023-03-13T12:04:48;5.90;99.90
19732;DHT22;10017;54.350;18.532;2023-03-13T12:07:30;5.80;99.90
19732;DHT22;10017;54.350;18.532;2023-03-13T12:10:08;5.80;99.90
19732;DHT22;10017;54.350;18.532;2023-03-13T12:26:12;5.80;99.90
19732;DHT22;10017;54.350;18.532;2023-03-13T12:28:47;5.80;99.90
19732;DHT22;10017;54.350;18.532;2023-03-13T12:31:24;5.80;99.90
19732;DHT22;10017;54.350;18.532;2023-03-13T12:36:48;5.90;99.90
19732;DHT22;10017;54.350;18.532;2023-03-13T12:44:57;5.90;99.90
19732;DHT22;10017;54.350;18.532;2023-03-13T12:47:33;5.90;99.90
19732;DHT22;10017;54.350;18.532;2023-03-13T12:50:16;5.90;99.90
19732;DHT22;10017;54.350;18.532;2023-03-13T12:58:36;5.90;99.90
19732;DHT22;10017;54.350;18.532;2023-03-13T13:01:09;5.90;99.90
19732;DHT22;10017;54.350;18.532;2023-03-13T13:06:19;6.00;99.90
19732;DHT22;10017;54.350;18.532;2023-03-13T13:16:48;6.20;99.90
19732;DHT22;10017;54.350;18.532;2023-03-13T13:24:49;6.20;99.90
19732;DHT22;10017;54.350;18.532;2023-03-13T13:32:35;6.20;99.90
19732;DHT22;10017;54.350;18.532;2023-03-13T13:37:42;6.30;99.90
19732;DHT22;10017;54.350;18.532;2023-03-13T13:45:22;6.40;99.90
19732;DHT22;10017;54.350;18.532;2023-03-13T13:48:20;6.40;99.90
19732;DHT22;10017;54.350;18.532;2023-03-13T13:53:43;6.50;99.90
19732;DHT22;10017;54.350;18.532;2023-03-13T13:56:37;6.60;99.90
19732;DHT22;10017;54.350;18.532;2023-03-13T14:02:11;6.70;99.90
19732;DHT22;10017;54.350;18.532;2023-03-13T14:04:51;6.80;99.90
19732;DHT22;10017;54.350;18.532;2023-03-13T14:07:27;6.80;99.90
19732;DHT22;10017;54.350;18.532;2023-03-13T14:10:02;6.90;99.90
19732;DHT22;10017;54.350;18.532;2023-03-13T14:12:35;6.90;99.90
19732;DHT22;10017;54.350;18.532;2023-03-13T14:17:43;7.00;99.90
19732;DHT22;10017;54.350;18.532;2023-03-13T14:22:49;7.10;99.90
19732;DHT22;10017;54.350;18.532;2023-03-13T14:25:22;7.10;99.90
19732;DHT22;10017;54.350;18.532;2023-03-13T14:27:54;7.20;99.90
19732;DHT22;10017;54.350;18.532;2023-03-13T14:30:26;7.20;99.90
19732;DHT22;10017;54.350;18.532;2023-03-13T14:32:58;7.20;99.90
19732;DHT22;10017;54.350;18.532;2023-03-13T14:35:30;7.20;99.90
19732;DHT22;10017;54.350;18.532;2023-03-13T14:38:02;7.20;99.90
19732;DHT22;10017;54.350;18.532;2023-03-13T14:40:38;7.30;99.90
19732;DHT22;10017;54.350;18.532;2023-03-13T14:43:20;7.30;99.90
19732;DHT22;10017;54.350;18.532;2023-03-13T14:45:53;7.30;99.90
19732;DHT22;10017;54.350;18.532;2023-03-13T14:48:29;7.40;99.90
19732;DHT22;10017;54.350;18.532;2023-03-13T14:51:08;7.40;99.90
19732;DHT22;10017;54.350;18.532;2023-03-13T14:53:56;7.40;99.90
19732;DHT22;10017;54.350;18.532;2023-03-13T14:56:36;7.40;99.90
19732;DHT22;10017;54.350;18.532;2023-03-13T14:59:13;7.40;99.90
19732;DHT22;10017;54.350;18.532;2023-03-13T15:01:46;7.40;99.90
19732;DHT22;10017;54.350;18.532;2023-03-13T15:07:19;7.50;99.90
19732;DHT22;10017;54.350;18.532;2023-03-13T15:09:51;7.50;99.90
19732;DHT22;10017;54.350;18.532;2023-03-13T15:12:25;7.50;99.90
19732;DHT22;10017;54.350;18.532;2023-03-13T15:14:57;7.50;99.90
19732;DHT22;10017;54.350;18.532;2023-03-13T15:17:31;7.50;99.90
19732;DHT22;10017;54.350;18.532;2023-03-13T15:20:04;7.50;99.90
19732;DHT22;10017;54.350;18.532;2023-03-13T15:22:42;7.60;99.90
19732;DHT22;10017;54.350;18.532;2023-03-13T15:27:49;7.70;99.90
19732;DHT22;10017;54.350;18.532;2023-03-13T15:30:21;7.70;99.90
19732;DHT22;10017;54.350;18.532;2023-03-13T15:32:56;7.70;99.90
19732;DHT22;10017;54.350;18.532;2023-03-13T15:35:31;7.60;99.90
19732;DHT22;10017;54.350;18.532;2023-03-13T15:38:09;7.60;99.90
19732;DHT22;10017;54.350;18.532;2023-03-13T15:40:41;7.60;99.90
19732;DHT22;10017;54.350;18.532;2023-03-13T15:43:14;7.60;99.90
19732;DHT22;10017;54.350;18.532;2023-03-13T15:45:46;7.60;99.90
19732;DHT22;10017;54.350;18.532;2023-03-13T15:48:23;7.60;99.90
19732;DHT22;10017;54.350;18.532;2023-03-13T15:50:56;7.60;99.90
19732;DHT22;10017;54.350;18.532;2023-03-13T15:53:32;7.60;99.90
19732;DHT22;10017;54.350;18.532;2023-03-13T15:56:17;7.60;99.90
19732;DHT22;10017;54.350;18.532;2023-03-13T15:58:49;7.60;99.90
19732;DHT22;10017;54.350;18.532;2023-03-13T16:01:21;7.60;99.90
19732;DHT22;10017;54.350;18.532;2023-03-13T16:03:53;7.60;99.90
19732;DHT22;10017;54.350;18.532;2023-03-13T16:06:25;7.60;99.90
19732;DHT22;10017;54.350;18.532;2023-03-13T16:09:03;7.60;99.90
19732;DHT22;10017;54.350;18.532;2023-03-13T16:11:36;7.70;99.90
19732;DHT22;10017;54.350;18.532;2023-03-13T16:14:10;7.70;99.90
19732;DHT22;10017;54.350;18.532;2023-03-13T16:16:44;7.80;99.90
19732;DHT22;10017;54.350;18.532;2023-03-13T16:19:19;7.80;99.90
19732;DHT22;10017;54.350;18.532;2023-03-13T16:21:51;7.80;99.90
19732;DHT22;10017;54.350;18.532;2023-03-13T16:24:25;7.80;99.90
19732;DHT22;10017;54.350;18.532;2023-03-13T16:26:58;7.80;99.90
19732;DHT22;10017;54.350;18.532;2023-03-13T16:29:30;7.80;99.90
19732;DHT22;10017;54.350;18.532;2023-03-13T16:32:01;7.90;99.90
19732;DHT22;10017;54.350;18.532;2023-03-13T16:34:33;7.90;99.90
19732;DHT22;10017;54.350;18.532;2023-03-13T16:37:12;7.90;99.90
19732;DHT22;10017;54.350;18.532;2023-03-13T16:39:45;7.90;99.90
19732;DHT22;10017;54.350;18.532;2023-03-13T16:42:17;7.90;99.90
19732;DHT22;10017;54.350;18.532;2023-03-13T16:44:49;7.90;99.90
19732;DHT22;10017;54.350;18.532;2023-03-13T16:47:22;7.90;99.90
19732;DHT22;10017;54.350;18.532;2023-03-13T16:49:55;7.90;99.90
19732;DHT22;10017;54.350;18.532;2023-03-13T16:52:27;7.90;99.90
19732;DHT22;10017;54.350;18.532;2023-03-13T16:55:01;7.90;99.90
19732;DHT22;10017;54.350;18.532;2023-03-13T16:57:33;7.90;99.90
19732;DHT22;10017;54.350;18.532;2023-03-13T17:00:11;8.00;99.90
19732;DHT22;10017;54.350;18.532;2023-03-13T17:02:48;8.00;99.90
19732;DHT22;10017;54.350;18.532;2023-03-13T17:05:23;8.00;99.90
19732;DHT22;10017;54.350;18.532;2023-03-13T17:07:55;8.10;99.90
19732;DHT22;10017;54.350;18.532;2023-03-13T17:10:28;8.00;99.90
19732;DHT22;10017;54.350;18.532;2023-03-13T17:13:01;8.10;99.90
19732;DHT22;10017;54.350;18.532;2023-03-13T17:15:33;8.10;99.90
19732;DHT22;10017;54.350;18.532;2023-03-13T17:18:05;8.10;99.90
19732;DHT22;10017;54.350;18.532;2023-03-13T17:20:37;8.10;99.90
19732;DHT22;10017;54.350;18.532;2023-03-13T17:23:09;8.20;99.90
19732;DHT22;10017;54.350;18.532;2023-03-13T17:25:43;8.20;99.90
19732;DHT22;10017;54.350;18.532;2023-03-13T17:28:15;8.20;99.90
19732;DHT22;10017;54.350;18.532;2023-03-13T17:30:46;8.20;99.90
19732;DHT22;10017;54.350;18.532;2023-03-13T17:33:20;8.20;99.90
19732;DHT22;10017;54.350;18.532;2023-03-13T17:35:52;8.30;99.90
19732;DHT22;10017;54.350;18.532;2023-03-13T17:38:24;8.30;99.90
19732;DHT22;10017;54.350;18.532;2023-03-13T17:40:58;8.30;99.90
19732;DHT22;10017;54.350;18.532;2023-03-13T17:43:30;8.40;99.90
19732;DHT22;10017;54.350;18.532;2023-03-13T17:46:02;8.40;99.90
19732;DHT22;10017;54.350;18.532;2023-03-13T17:48:34;8.40;99.90
19732;DHT22;10017;54.350;18.532;2023-03-13T17:51:11;8.50;99.90
19732;DHT22;10017;54.350;18.532;2023-03-13T17:53:43;8.50;99.90
19732;DHT22;10017;54.350;18.532;2023-03-13T17:56:17;8.50;99.90
19732;DHT22;10017;54.350;18.532;2023-03-13T17:58:52;8.50;99.90
19732;DHT22;10017;54.350;18.532;2023-03-13T18:01:28;8.50;99.90
19732;DHT22;10017;54.350;18.532;2023-03-13T18:04:00;8.50;99.90
19732;DHT22;10017;54.350;18.532;2023-03-13T18:06:45;8.50;99.90
19732;DHT22;10017;54.350;18.532;2023-03-13T18:09:18;8.60;99.90
19732;DHT22;10017;54.350;18.532;2023-03-13T18:11:51;8.60;99.90
19732;DHT22;10017;54.350;18.532;2023-03-13T18:14:23;8.70;99.90
19732;DHT22;10017;54.350;18.532;2023-03-13T18:16:54;8.70;99.90